This is the latest recevied weather packets stored in our database for station/object KD5FHA. If no packets are shown the sender has not sent any weather packets the latest 10 day(s).
| Time | Temp. | Humidity | Pressure | Rain* | Wind** | Luminosity | Snow |
|---|---|---|---|---|---|---|---|
| 1777476002 | 16.11° C | 76% | 1016.2 hPa | 0 mm | - | 126 W/m² | - |
| 1777475699 | 16.67° C | 76% | 1016.3 hPa | 0 mm | - | 85 W/m² | - |
| 1777475395 | 16.11° C | 76% | 1016.6 hPa | 0 mm | - | 65 W/m² | - |
| 1777475090 | 16.11° C | 76% | 1016.9 hPa | 0 mm | - | 30 W/m² | - |
| 1777474787 | 16.11° C | 76% | 1016.4 hPa | 0 mm | - | 36 W/m² | - |
| 1777474483 | 16.67° C | 76% | 1016.1 hPa | 0 mm | - | 76 W/m² | - |
| 1777474180 | 16.67° C | 75% | 1016.2 hPa | 0 mm | - | 69 W/m² | - |
| 1777473878 | 16.67° C | 76% | 1015.9 hPa | 0 mm | - | 62 W/m² | - |
| 1777473575 | 16.11° C | 76% | 1016.2 hPa | 0 mm | - | 46 W/m² | - |
| 1777473271 | 16.11° C | 76% | 1016.1 hPa | 0 mm | - | 55 W/m² | - |
| 1777472966 | 16.67° C | 76% | 1016.1 hPa | 0 mm | - | 40 W/m² | - |
| 1777472664 | 16.11° C | 76% | 1016 hPa | 0 mm | - | 54 W/m² | - |
| 1777472360 | 16.67° C | 76% | 1015.8 hPa | 0 mm | - | 44 W/m² | - |
| 1777472058 | 16.67° C | 76% | 1015.9 hPa | 0 mm | - | 47 W/m² | - |
| 1777471753 | 16.11° C | 76% | 1015.9 hPa | 0 mm | - | 45 W/m² | - |
| 1777471450 | 16.11° C | 75% | 1015.9 hPa | 0 mm | - | 48 W/m² | - |
| 1777471146 | 16.67° C | 75% | 1015.8 hPa | 0 mm | - | 48 W/m² | - |
| 1777470843 | 16.67° C | 75% | 1015.6 hPa | 0 mm | - | 49 W/m² | - |
| 1777470540 | 16.67° C | 75% | 1015.9 hPa | 0 mm | - | 42 W/m² | - |
| 1777470236 | 16.67° C | 75% | 1015.7 hPa | 0 mm | - | 43 W/m² | - |
| 1777469932 | 16.67° C | 75% | 1015.8 hPa | 0 mm | - | 36 W/m² | - |
| 1777469628 | 16.67° C | 74% | 1015.7 hPa | 0 mm | - | 26 W/m² | - |
| 1777469324 | 16.67° C | 74% | 1015.7 hPa | 0 mm | - | 30 W/m² | - |
| 1777469019 | 16.67° C | 74% | 1015.6 hPa | 0 mm | - | 41 W/m² | - |
| 1777468714 | 16.67° C | 74% | 1015.8 hPa | 0 mm | - | 40 W/m² | - |
* Rain latest hour (hover to see other rain measurements)
** Current wind speed in m/s (hover to see current wind gust speed)